createdAt,value
2019-04-03T00:02:15.114Z,100129.56
2019-04-03T00:04:47.688Z,100134.22
2019-04-03T00:07:20.268Z,100127.59
2019-04-03T00:09:52.631Z,100118.37
2019-04-03T00:12:25.163Z,100131.12
2019-04-03T00:14:57.414Z,100127.89
2019-04-03T00:17:29.834Z,100127.39
2019-04-03T00:20:05.242Z,100126.95
2019-04-03T00:22:37.501Z,100129.55
2019-04-03T00:25:09.745Z,100127.34
2019-04-03T00:27:42.040Z,100126.31
2019-04-03T00:30:14.453Z,100125.27
2019-04-03T00:32:46.899Z,100116.50
2019-04-03T00:35:19.258Z,100122.27
2019-04-03T00:37:53.746Z,100124.98
2019-04-03T00:40:25.613Z,100117.94
2019-04-03T00:42:58.156Z,100110.22
2019-04-03T00:45:30.462Z,100120.00
2019-04-03T00:48:02.929Z,100123.59
2019-04-03T00:50:35.350Z,100120.49
2019-04-03T00:53:07.607Z,100128.22
2019-04-03T00:55:39.854Z,100127.58
2019-04-03T00:58:12.073Z,100136.16
2019-04-03T01:00:44.292Z,100126.52
2019-04-03T01:03:16.526Z,100124.24
2019-04-03T01:05:49.030Z,100127.29
2019-04-03T01:08:21.362Z,100126.88
2019-04-03T01:10:54.748Z,100129.50
2019-04-03T01:13:27.150Z,100127.34
2019-04-03T01:16:02.128Z,100131.78
2019-04-03T01:18:35.274Z,100126.83
2019-04-03T01:21:07.630Z,100119.20
2019-04-03T01:23:41.483Z,100113.34
2019-04-03T01:26:13.841Z,100114.44
2019-04-03T01:28:45.892Z,100106.06
2019-04-03T01:31:18.325Z,100112.16
2019-04-03T01:33:50.595Z,100111.48
2019-04-03T01:36:22.822Z,100113.04
2019-04-03T01:38:57.506Z,100110.28
2019-04-03T01:41:29.875Z,100118.85
2019-04-03T01:44:02.098Z,100121.81
2019-04-03T01:46:34.540Z,100119.05
2019-04-03T01:49:07.071Z,100118.95
2019-04-03T01:51:39.440Z,100115.27
2019-04-03T01:54:11.597Z,100119.03
2019-04-03T01:56:43.885Z,100122.50
2019-04-03T01:59:16.181Z,100116.89
2019-04-03T02:01:48.596Z,100116.14
2019-04-03T02:04:22.470Z,100114.78
2019-04-03T02:06:54.901Z,100113.86
2019-04-03T02:09:27.345Z,100111.16
2019-04-03T02:11:59.745Z,100112.91
2019-04-03T02:14:35.271Z,100112.02
2019-04-03T02:17:07.659Z,100114.20
2019-04-03T02:19:39.806Z,100109.91
2019-04-03T02:22:12.214Z,100114.20
2019-04-03T02:24:44.580Z,100112.80
2019-04-03T02:27:16.821Z,100107.63
2019-04-03T02:29:49.059Z,100103.64
2019-04-03T02:32:23.817Z,100106.52
2019-04-03T02:34:55.392Z,100114.20
2019-04-03T02:37:27.680Z,100110.63
2019-04-03T02:40:00.560Z,100114.58
2019-04-03T02:42:33.162Z,100116.45
2019-04-03T02:45:07.020Z,100122.11
2019-04-03T02:47:39.302Z,100129.09
2019-04-03T02:50:13.902Z,100124.91
2019-04-03T02:52:45.359Z,100129.41
2019-04-03T02:55:17.770Z,100118.33
2019-04-03T02:57:50.380Z,100120.23
2019-04-03T03:00:22.795Z,100119.42
2019-04-03T03:02:55.143Z,100112.17
2019-04-03T03:05:28.799Z,100115.69
2019-04-03T03:08:01.646Z,100115.58
2019-04-03T03:10:33.887Z,100112.55
2019-04-03T03:13:06.159Z,100119.42
2019-04-03T03:15:38.370Z,100120.17
2019-04-03T03:18:10.654Z,100120.23
2019-04-03T03:20:42.968Z,100121.60
2019-04-03T03:23:15.274Z,100122.42
2019-04-03T03:25:47.877Z,100117.17
2019-04-03T03:28:20.450Z,100124.01
2019-04-03T03:31:00.922Z,100124.41
2019-04-03T03:33:35.558Z,100121.02
2019-04-03T03:36:01.192Z,100123.34
2019-04-03T03:38:33.945Z,100119.86
2019-04-03T03:41:06.213Z,100124.22
2019-04-03T03:43:39.074Z,100129.91
2019-04-03T03:46:11.481Z,100124.40
2019-04-03T03:48:45.039Z,100122.73
2019-04-03T03:51:17.707Z,100123.69
2019-04-03T03:53:49.963Z,100127.20
2019-04-03T03:56:22.271Z,100122.50
2019-04-03T03:58:54.526Z,100121.20
2019-04-03T04:01:30.196Z,100112.08
2019-04-03T04:04:01.077Z,100113.04
2019-04-03T04:06:36.261Z,100112.19
2019-04-03T04:09:08.380Z,100114.47
2019-04-03T04:11:41.083Z,100115.05
2019-04-03T04:14:13.395Z,100119.78
2019-04-03T04:16:45.687Z,100116.45
2019-04-03T04:19:17.970Z,100123.05
2019-04-03T04:21:50.487Z,100117.41
2019-04-03T04:24:22.879Z,100114.00
2019-04-03T04:26:55.253Z,100115.73
2019-04-03T04:29:27.885Z,100116.31
2019-04-03T04:32:00.541Z,100115.53
2019-04-03T04:34:32.787Z,100114.27
2019-04-03T04:37:05.093Z,100110.45
2019-04-03T04:39:37.462Z,100115.63
2019-04-03T04:42:09.743Z,100109.53
2019-04-03T04:44:41.838Z,100121.89
2019-04-03T04:47:15.291Z,100116.92
2019-04-03T04:49:47.986Z,100115.05
2019-04-03T04:52:20.505Z,100113.66
2019-04-03T04:54:52.761Z,100107.02
2019-04-03T04:57:25.168Z,100115.15
2019-04-03T04:59:57.526Z,100113.78
2019-04-03T05:02:30.192Z,100109.80
2019-04-03T05:05:02.522Z,100107.11
2019-04-03T05:07:34.815Z,100106.90
2019-04-03T05:10:07.126Z,100111.97
2019-04-03T05:12:44.186Z,100110.19
2019-04-03T05:15:13.371Z,100112.56
2019-04-03T05:17:45.565Z,100109.98
2019-04-03T05:20:20.199Z,100112.20
2019-04-03T05:22:54.542Z,100114.85
2019-04-03T05:25:27.875Z,100113.66
2019-04-03T05:28:01.074Z,100112.41
2019-04-03T05:30:33.498Z,100110.70
2019-04-03T05:33:07.484Z,100115.14
2019-04-03T05:35:41.069Z,100118.58
2019-04-03T05:38:13.443Z,100113.58
2019-04-03T05:40:45.566Z,100119.81
2019-04-03T05:43:18.077Z,100110.15
2019-04-03T05:45:51.475Z,100115.91
2019-04-03T05:48:23.764Z,100111.23
2019-04-03T05:50:58.165Z,100110.12
2019-04-03T05:53:30.132Z,100112.84
2019-04-03T05:56:02.348Z,100109.57
2019-04-03T05:58:34.670Z,100099.48
2019-04-03T06:01:08.783Z,100096.34
2019-04-03T06:03:44.829Z,100093.06
2019-04-03T06:06:15.588Z,100092.76
2019-04-03T06:08:50.631Z,100093.27
2019-04-03T06:11:22.219Z,100095.95
2019-04-03T06:13:54.593Z,100096.52
2019-04-03T06:16:26.836Z,100099.52
2019-04-03T06:18:59.748Z,100105.11
2019-04-03T06:21:32.287Z,100107.26
2019-04-03T06:24:04.543Z,100107.36
2019-04-03T06:26:37.790Z,100105.94
2019-04-03T06:29:10.947Z,100110.58
2019-04-03T06:31:43.271Z,100107.02
2019-04-03T06:34:15.623Z,100106.78
2019-04-03T06:36:49.664Z,100099.05
2019-04-03T06:39:23.472Z,100109.09
2019-04-03T06:41:55.916Z,100112.63
2019-04-03T06:44:28.337Z,100116.05
2019-04-03T06:47:01.498Z,100112.13
2019-04-03T06:49:34.226Z,100108.59
2019-04-03T06:52:06.845Z,100109.88
2019-04-03T06:54:39.108Z,100115.13
2019-04-03T06:57:11.807Z,100115.31
2019-04-03T06:59:47.897Z,100110.53
2019-04-03T07:02:19.958Z,100108.35
2019-04-03T07:04:52.664Z,100110.41
2019-04-03T07:07:32.972Z,100116.24
2019-04-03T07:09:58.776Z,100108.52
2019-04-03T07:12:32.161Z,100111.05
2019-04-03T07:15:04.550Z,100111.89
2019-04-03T07:17:37.141Z,100114.87
2019-04-03T07:20:14.483Z,100114.94
2019-04-03T07:22:43.477Z,100110.25
2019-04-03T07:25:16.451Z,100107.59
2019-04-03T07:27:48.980Z,100111.81
2019-04-03T07:30:21.782Z,100112.00
2019-04-03T07:32:57.152Z,100107.89
2019-04-03T07:35:28.719Z,100112.39
2019-04-03T07:38:01.180Z,100104.34
2019-04-03T07:40:33.461Z,100106.78
2019-04-03T07:43:06.091Z,100109.82
2019-04-03T07:45:38.585Z,100108.70
2019-04-03T07:48:10.905Z,100115.67
2019-04-03T07:50:44.929Z,100119.30
2019-04-03T07:53:19.283Z,100118.05
2019-04-03T07:55:51.608Z,100123.94
2019-04-03T07:58:25.391Z,100130.16
2019-04-03T08:00:58.096Z,100122.13
2019-04-03T08:03:30.422Z,100119.28
2019-04-03T08:06:03.538Z,100124.17
2019-04-03T08:08:37.120Z,100123.39
2019-04-03T08:11:09.565Z,100128.13
2019-04-03T08:13:42.234Z,100120.37
2019-04-03T08:16:15.808Z,100111.53
2019-04-03T08:18:49.934Z,100107.70
2019-04-03T08:21:23.151Z,100110.30
2019-04-03T08:23:55.510Z,100116.98
2019-04-03T08:26:27.968Z,100125.09
2019-04-03T08:29:01.820Z,100134.98
2019-04-03T08:31:34.770Z,100129.70
2019-04-03T08:34:15.489Z,100128.39
2019-04-03T08:36:41.114Z,100126.46
2019-04-03T08:39:13.704Z,100134.41
2019-04-03T08:41:47.564Z,100133.84
2019-04-03T08:44:20.265Z,100138.77
2019-04-03T08:46:52.946Z,100126.16
2019-04-03T08:49:26.330Z,100129.05
2019-04-03T08:51:59.271Z,100125.40
2019-04-03T08:54:31.964Z,100120.60
2019-04-03T08:57:04.904Z,100121.32
2019-04-03T08:59:37.208Z,100113.56
2019-04-03T09:02:12.771Z,100123.88
2019-04-03T09:04:43.791Z,100121.40
2019-04-03T09:07:16.183Z,100121.61
2019-04-03T09:09:50.387Z,100129.24
2019-04-03T09:12:22.730Z,100123.97
2019-04-03T09:14:57.053Z,100124.06
2019-04-03T09:17:29.064Z,100127.61
2019-04-03T09:20:02.460Z,100125.89
2019-04-03T09:22:34.806Z,100116.72
2019-04-03T09:25:07.098Z,100114.55
2019-04-03T09:27:40.712Z,100112.30
2019-04-03T09:30:15.447Z,100111.97
2019-04-03T09:32:47.164Z,100111.70
2019-04-03T09:35:19.815Z,100104.39
2019-04-03T09:37:52.462Z,100109.48
2019-04-03T09:40:24.877Z,100107.14
2019-04-03T09:42:57.204Z,100109.58
2019-04-03T09:45:29.544Z,100099.48
2019-04-03T09:48:04.588Z,100097.75
2019-04-03T09:50:36.071Z,100101.37
2019-04-03T09:53:08.681Z,100098.14
2019-04-03T09:55:40.936Z,100097.52
2019-04-03T09:58:13.270Z,100096.34
2019-04-03T10:00:45.626Z,100101.26
2019-04-03T10:03:18.177Z,100097.88
2019-04-03T10:05:50.831Z,100092.48
2019-04-03T10:08:23.210Z,100086.89
2019-04-03T10:10:55.886Z,100084.39
2019-04-03T10:13:28.128Z,100083.70
2019-04-03T10:16:03.258Z,100073.69
2019-04-03T10:18:39.091Z,100069.38
2019-04-03T10:21:12.518Z,100066.72
2019-04-03T10:23:44.848Z,100077.36
2019-04-03T10:26:17.087Z,100066.40
2019-04-03T10:28:49.354Z,100071.63
2019-04-03T10:31:23.795Z,100053.93
2019-04-03T10:33:55.608Z,100057.99
2019-04-03T10:36:28.891Z,100061.02
2019-04-03T10:39:01.221Z,100058.15
2019-04-03T10:41:34.767Z,100062.52
2019-04-03T10:44:09.295Z,100061.59
2019-04-03T10:46:41.167Z,100051.88
2019-04-03T10:49:13.752Z,100054.44
2019-04-03T10:51:46.092Z,100060.14
2019-04-03T10:54:18.382Z,100048.38
2019-04-03T10:56:51.041Z,100057.99
2019-04-03T10:59:23.709Z,100052.02
2019-04-03T11:01:56.099Z,100055.28
2019-04-03T11:04:28.815Z,100054.16
2019-04-03T11:07:01.202Z,100053.77
2019-04-03T11:09:33.420Z,100043.73
2019-04-03T11:12:06.221Z,100036.77
2019-04-03T11:14:40.146Z,100037.20
2019-04-03T11:17:13.050Z,100044.64
2019-04-03T11:19:45.648Z,100038.52
2019-04-03T11:22:18.089Z,100025.84
2019-04-03T11:24:50.846Z,100028.01
2019-04-03T11:27:29.063Z,100025.82
2019-04-03T11:29:57.234Z,100019.78
2019-04-03T11:32:29.686Z,100015.80
2019-04-03T11:35:02.171Z,100014.95
2019-04-03T11:37:35.094Z,100011.86
2019-04-03T11:40:07.874Z,100020.59
2019-04-03T11:42:40.265Z,100024.86
2019-04-03T11:45:12.653Z,100019.55
2019-04-03T11:47:46.186Z,100005.88
2019-04-03T11:50:18.634Z,100002.69
2019-04-03T11:52:52.168Z,100004.39
2019-04-03T11:55:24.578Z,99990.45
2019-04-03T11:57:57.037Z,99999.27
2019-04-03T12:00:29.348Z,100004.97
2019-04-03T12:03:01.652Z,100005.55
2019-04-03T12:05:33.924Z,99997.39
2019-04-03T12:08:07.469Z,99994.16
2019-04-03T12:10:40.041Z,100002.62
2019-04-03T12:13:14.241Z,100003.04
2019-04-03T12:15:48.019Z,100016.05
2019-04-03T12:18:20.708Z,100013.69
2019-04-03T12:20:53.522Z,100019.69
2019-04-03T12:23:26.838Z,100044.69
2019-04-03T12:26:01.671Z,100068.88
2019-04-03T12:28:34.118Z,100056.34
2019-04-03T12:31:06.389Z,100025.34
2019-04-03T12:33:46.659Z,100062.41
2019-04-03T12:36:15.941Z,100061.67
2019-04-03T12:38:48.017Z,100079.66
2019-04-03T12:41:20.297Z,100075.14
2019-04-03T12:43:53.487Z,100070.70
2019-04-03T12:46:25.798Z,100066.67
2019-04-03T12:48:58.086Z,100074.89
2019-04-03T12:51:31.534Z,100069.88
2019-04-03T12:54:04.346Z,100062.83
2019-04-03T12:56:37.015Z,100056.58
2019-04-03T12:59:09.672Z,100056.25
2019-04-03T13:01:43.433Z,100052.45
2019-04-03T13:04:15.680Z,100037.41
2019-04-03T13:06:47.919Z,100028.02
2019-04-03T13:09:20.701Z,100019.66
2019-04-03T13:11:53.330Z,100014.00
2019-04-03T13:14:27.199Z,100015.25
2019-04-03T13:16:59.575Z,100007.67
2019-04-03T13:19:33.464Z,99998.18
2019-04-03T13:22:05.993Z,99998.53
2019-04-03T13:24:38.356Z,99990.95
2019-04-03T13:27:10.501Z,100004.47
2019-04-03T13:29:42.876Z,99990.02
2019-04-03T13:32:17.280Z,99984.92
2019-04-03T13:34:50.405Z,99988.91
2019-04-03T13:37:23.892Z,99987.02
2019-04-03T13:40:00.205Z,99982.13
2019-04-03T13:42:31.899Z,99987.13
2019-04-03T13:45:04.888Z,99976.05
2019-04-03T13:47:39.878Z,99984.70
2019-04-03T13:50:11.683Z,99966.67
2019-04-03T13:52:48.432Z,99962.66
2019-04-03T13:55:18.040Z,99970.31
2019-04-03T13:57:51.376Z,99957.31
2019-04-03T14:00:24.866Z,99949.47
2019-04-03T14:02:58.246Z,99943.14
2019-04-03T14:05:32.955Z,99945.45
2019-04-03T14:08:07.122Z,99959.88
2019-04-03T14:10:40.001Z,99953.27
2019-04-03T14:13:12.983Z,99953.91
2019-04-03T14:15:45.685Z,99958.03
2019-04-03T14:18:18.029Z,99963.09
2019-04-03T14:20:51.965Z,99962.61
2019-04-03T14:23:24.795Z,99966.98
2019-04-03T14:26:04.063Z,99973.58
2019-04-03T14:28:35.436Z,99983.68
2019-04-03T14:31:08.538Z,99977.67
2019-04-03T14:33:45.127Z,99970.12
2019-04-03T14:36:18.362Z,99956.18
2019-04-03T14:38:49.112Z,99958.94
2019-04-03T14:41:21.376Z,99948.87
2019-04-03T14:43:54.199Z,99940.74
2019-04-03T14:46:26.961Z,99935.98
2019-04-03T14:49:02.572Z,99932.42
2019-04-03T14:51:33.727Z,99931.39
2019-04-03T14:54:08.424Z,99934.42
2019-04-03T14:56:40.451Z,99934.07
2019-04-03T14:59:14.055Z,99934.66
2019-04-03T15:01:46.769Z,99927.92
2019-04-03T15:04:19.001Z,99917.78
2019-04-03T15:07:01.656Z,99916.66
2019-04-03T15:09:26.990Z,99926.29
2019-04-03T15:11:59.517Z,99930.44
2019-04-03T15:14:31.914Z,99935.97
2019-04-03T15:17:05.238Z,99936.18
2019-04-03T15:19:38.443Z,99925.83
2019-04-03T15:22:11.129Z,99911.39
2019-04-03T15:24:44.465Z,99910.41
2019-04-03T15:27:17.032Z,99912.09
2019-04-03T15:29:50.078Z,99902.05
2019-04-03T15:32:22.868Z,99914.80
2019-04-03T15:34:58.700Z,99926.50
2019-04-03T15:37:29.717Z,99920.51
2019-04-03T15:40:02.328Z,99907.88
2019-04-03T15:42:38.481Z,99904.39
2019-04-03T15:45:09.329Z,99910.06
2019-04-03T15:47:45.822Z,99928.41
2019-04-03T15:50:17.114Z,99918.75
2019-04-03T15:52:51.256Z,99922.63
2019-04-03T15:55:25.114Z,99926.45
2019-04-03T15:57:58.295Z,99948.12
2019-04-03T16:00:30.627Z,99968.19
2019-04-03T16:03:03.353Z,99970.92
2019-04-03T16:05:37.137Z,99975.41
2019-04-03T16:08:10.018Z,99976.66
2019-04-03T16:10:44.180Z,99985.13
2019-04-03T16:13:16.744Z,99984.97
2019-04-03T16:15:48.967Z,99972.93
2019-04-03T16:18:21.800Z,99979.45
2019-04-03T16:20:54.133Z,99978.97
2019-04-03T16:23:27.241Z,99963.53
2019-04-03T16:26:00.312Z,99958.50
2019-04-03T16:28:34.073Z,99958.11
2019-04-03T16:31:09.235Z,99948.12
2019-04-03T16:33:43.001Z,99959.67
2019-04-03T16:36:25.083Z,99942.47
2019-04-03T16:39:01.105Z,99936.11
2019-04-03T16:41:37.667Z,99925.07
2019-04-03T16:44:09.341Z,99920.89
2019-04-03T16:46:42.142Z,99916.97
2019-04-03T16:49:14.467Z,99912.95
2019-04-03T16:51:46.840Z,99923.22
2019-04-03T16:54:19.157Z,99923.55
2019-04-03T16:56:51.831Z,99919.38
2019-04-03T16:59:24.271Z,99916.18
2019-04-03T17:01:56.886Z,99932.59
2019-04-03T17:04:29.116Z,99934.28
2019-04-03T17:07:01.808Z,99931.75
2019-04-03T17:09:37.469Z,99936.23
2019-04-03T17:12:09.022Z,99920.48
2019-04-03T17:14:43.580Z,99906.17
2019-04-03T17:17:19.688Z,99898.81
2019-04-03T17:19:53.949Z,99901.91
2019-04-03T17:22:29.871Z,99900.96
2019-04-03T17:25:02.753Z,99877.36
2019-04-03T17:27:35.111Z,99868.98
2019-04-03T17:30:07.626Z,99877.61
2019-04-03T17:32:40.079Z,99894.51
2019-04-03T17:35:15.063Z,99904.89
2019-04-03T17:37:48.728Z,99903.02
2019-04-03T17:40:21.348Z,99905.43
2019-04-03T17:42:53.700Z,99913.50
2019-04-03T17:45:35.610Z,99904.27
2019-04-03T17:48:11.019Z,99898.63
2019-04-03T17:50:47.536Z,99900.66
2019-04-03T17:53:21.039Z,99894.39
2019-04-03T17:55:53.421Z,99885.89
2019-04-03T17:58:25.778Z,99869.45
2019-04-03T18:00:58.055Z,99866.47
2019-04-03T18:03:30.535Z,99869.18
2019-04-03T18:06:03.290Z,99894.34
2019-04-03T18:08:35.860Z,99895.21
2019-04-03T18:11:08.324Z,99883.60
2019-04-03T18:13:40.629Z,99875.58
2019-04-03T18:16:13.451Z,99875.00
2019-04-03T18:18:45.880Z,99869.33
2019-04-03T18:21:18.395Z,99860.18
2019-04-03T18:23:52.873Z,99858.37
2019-04-03T18:26:25.052Z,99874.28
2019-04-03T18:28:57.085Z,99874.11
2019-04-03T18:31:29.340Z,99873.98
2019-04-03T18:34:01.656Z,99870.85
2019-04-03T18:36:34.339Z,99882.12
2019-04-03T18:39:07.854Z,99887.67
2019-04-03T18:41:40.822Z,99874.77
2019-04-03T18:44:22.056Z,99872.70
2019-04-03T18:46:50.052Z,99887.51
2019-04-03T18:49:21.788Z,99906.97
2019-04-03T18:51:54.174Z,99903.07
2019-04-03T18:54:26.691Z,99898.66
2019-04-03T18:56:59.678Z,99903.48
2019-04-03T18:59:32.084Z,99903.50
2019-04-03T19:02:06.410Z,99910.88
2019-04-03T19:04:38.775Z,99904.45
2019-04-03T19:07:11.123Z,99906.67
2019-04-03T19:09:43.341Z,99901.92
2019-04-03T19:12:15.747Z,99903.69
2019-04-03T19:14:48.069Z,99896.83
2019-04-03T19:17:20.379Z,99918.09
2019-04-03T19:19:55.656Z,99926.05
2019-04-03T19:22:26.758Z,99924.28
2019-04-03T19:24:59.358Z,99931.66
2019-04-03T19:27:33.074Z,99928.53
2019-04-03T19:30:07.649Z,99919.39
2019-04-03T19:32:42.763Z,99931.41
2019-04-03T19:35:14.350Z,99928.23
2019-04-03T19:37:46.671Z,99933.27
2019-04-03T19:40:18.942Z,99932.22
2019-04-03T19:42:51.304Z,99922.58
2019-04-03T19:45:23.762Z,99936.73
2019-04-03T19:47:56.341Z,99946.70
2019-04-03T19:50:31.465Z,99941.65
2019-04-03T19:53:02.632Z,99945.73
2019-04-03T19:55:35.305Z,99947.97
2019-04-03T19:58:07.689Z,99949.68
2019-04-03T20:00:40.010Z,99951.25
2019-04-03T20:03:14.076Z,99949.28
2019-04-03T20:05:50.081Z,99950.38
2019-04-03T20:08:20.559Z,99938.92
2019-04-03T20:10:53.180Z,99941.37
2019-04-03T20:13:28.046Z,99943.44
2019-04-03T20:15:59.939Z,99937.69
2019-04-03T20:18:32.505Z,99942.80
2019-04-03T20:21:04.756Z,99942.73
2019-04-03T20:23:37.262Z,99938.84
2019-04-03T20:26:09.577Z,99937.69
2019-04-03T20:28:41.900Z,99938.86
2019-04-03T20:31:14.104Z,99927.91
2019-04-03T20:33:46.557Z,99915.30
2019-04-03T20:36:20.361Z,99905.19
2019-04-03T20:38:53.011Z,99918.38
2019-04-03T20:41:25.359Z,99920.83
2019-04-03T20:43:57.681Z,99916.79
2019-04-03T20:46:30.005Z,99926.28
2019-04-03T20:49:03.061Z,99936.27
2019-04-03T20:51:35.665Z,99929.42
2019-04-03T20:54:07.881Z,99931.94
2019-04-03T20:56:40.133Z,99930.85
2019-04-03T20:59:12.410Z,99940.55
2019-04-03T21:01:44.714Z,99943.45
2019-04-03T21:04:16.999Z,99954.19
2019-04-03T21:06:51.580Z,99953.69
2019-04-03T21:09:23.656Z,99950.53
2019-04-03T21:11:55.919Z,99959.38
2019-04-03T21:14:28.553Z,99963.11
2019-04-03T21:17:00.994Z,99954.23
2019-04-03T21:19:33.545Z,99957.02
2019-04-03T21:22:05.787Z,99960.40
2019-04-03T21:24:38.198Z,99965.20
2019-04-03T21:27:10.563Z,99950.53
2019-04-03T21:29:42.842Z,99929.78
2019-04-03T21:32:15.297Z,99928.02
2019-04-03T21:34:47.997Z,99917.56
2019-04-03T21:37:20.579Z,99911.44
2019-04-03T21:39:53.086Z,99917.36
2019-04-03T21:42:26.878Z,99916.79
2019-04-03T21:45:02.540Z,99914.03
2019-04-03T21:47:34.893Z,99913.39
2019-04-03T21:50:07.233Z,99910.09
2019-04-03T21:52:39.608Z,99910.28
2019-04-03T21:55:12.085Z,99917.40
2019-04-03T21:57:44.302Z,99913.81
2019-04-03T22:00:18.559Z,99917.22
2019-04-03T22:02:52.430Z,99918.52
2019-04-03T22:05:25.350Z,99912.42
2019-04-03T22:07:58.255Z,99918.81
2019-04-03T22:10:32.998Z,99917.43
2019-04-03T22:13:05.889Z,99911.22
2019-04-03T22:15:39.446Z,99912.77
2019-04-03T22:18:11.651Z,99918.58
2019-04-03T22:20:46.003Z,99920.98
2019-04-03T22:23:18.835Z,99917.02
2019-04-03T22:25:51.553Z,99910.89
2019-04-03T22:28:23.835Z,99914.70
2019-04-03T22:30:56.155Z,99887.45
2019-04-03T22:33:28.322Z,99870.55
2019-04-03T22:36:01.256Z,99878.21
2019-04-03T22:38:37.114Z,99892.84
2019-04-03T22:41:12.264Z,99906.10
2019-04-03T22:43:44.165Z,99903.29
2019-04-03T22:46:17.705Z,99912.66
2019-04-03T22:48:50.238Z,99908.17
2019-04-03T22:51:22.547Z,99900.23
2019-04-03T22:53:54.972Z,99904.52
2019-04-03T22:56:27.417Z,99898.39
2019-04-03T22:58:59.833Z,99896.59
2019-04-03T23:01:32.311Z,99898.67
2019-04-03T23:04:05.345Z,99909.83
2019-04-03T23:06:38.320Z,99909.27
2019-04-03T23:09:10.758Z,99914.33
2019-04-03T23:11:42.887Z,99919.03
2019-04-03T23:14:15.111Z,99911.17
2019-04-03T23:16:47.461Z,99904.11
2019-04-03T23:19:19.737Z,99911.35
2019-04-03T23:21:54.845Z,99913.87
2019-04-03T23:24:28.891Z,99920.30
2019-04-03T23:27:02.712Z,99915.44
2019-04-03T23:29:36.683Z,99924.34
2019-04-03T23:32:09.335Z,99935.97
2019-04-03T23:34:41.563Z,99922.64
2019-04-03T23:37:13.815Z,99920.06
2019-04-03T23:39:46.085Z,99907.11
2019-04-03T23:42:18.484Z,99913.16
2019-04-03T23:44:50.902Z,99911.32
2019-04-03T23:47:23.128Z,99904.25
2019-04-03T23:49:55.376Z,99897.58
2019-04-03T23:52:28.042Z,99894.45
2019-04-03T23:55:04.537Z,99893.54
2019-04-03T23:57:35.884Z,99888.30
